createdAt,value
2019-04-27T00:00:18.004Z,13.17
2019-04-27T00:03:06.007Z,13.77
2019-04-27T00:05:44.137Z,13.27
2019-04-27T00:08:35.084Z,12.50
2019-04-27T00:11:17.747Z,12.27
2019-04-27T00:13:46.314Z,12.00
2019-04-27T00:16:28.745Z,11.50
2019-04-27T00:19:09.485Z,11.67
2019-04-27T00:21:39.714Z,12.73
2019-04-27T00:24:08.279Z,11.17
2019-04-27T00:26:36.805Z,12.63
2019-04-27T00:29:05.601Z,12.90
2019-04-27T00:31:34.170Z,13.20
2019-04-27T00:34:03.627Z,13.30
2019-04-27T00:36:36.804Z,12.57
2019-04-27T00:39:20.773Z,13.30
2019-04-27T00:41:49.395Z,13.30
2019-04-27T00:44:17.988Z,13.13
2019-04-27T00:46:46.525Z,13.37
2019-04-27T00:49:15.108Z,14.03
2019-04-27T00:51:43.585Z,14.30
2019-04-27T00:54:13.609Z,14.00
2019-04-27T00:56:55.740Z,13.50
2019-04-27T00:59:33.018Z,15.37
2019-04-27T01:02:13.471Z,14.10
2019-04-27T01:04:42.870Z,14.77
2019-04-27T01:07:14.082Z,15.00
2019-04-27T01:09:42.931Z,15.27
2019-04-27T01:12:11.537Z,15.23
2019-04-27T01:14:40.067Z,16.60
2019-04-27T01:17:08.925Z,15.00
2019-04-27T01:19:39.149Z,14.53
2019-04-27T01:22:08.745Z,14.10
2019-04-27T01:24:39.066Z,14.33
2019-04-27T01:27:19.018Z,15.00
2019-04-27T01:29:49.954Z,14.00
2019-04-27T01:32:18.614Z,15.10
2019-04-27T01:34:49.372Z,14.70
2019-04-27T01:37:19.566Z,14.23
2019-04-27T01:39:50.281Z,14.13
2019-04-27T01:42:19.279Z,12.80
2019-04-27T01:44:50.870Z,14.17
2019-04-27T01:47:18.755Z,12.87
2019-04-27T01:49:49.417Z,13.53
2019-04-27T01:52:19.333Z,11.97
2019-04-27T01:54:49.559Z,11.27
2019-04-27T01:57:19.416Z,11.90
2019-04-27T01:59:48.937Z,11.90
2019-04-27T02:02:19.197Z,11.30
2019-04-27T02:05:04.725Z,12.40
2019-04-27T02:07:33.657Z,12.30
2019-04-27T02:10:02.105Z,10.40
2019-04-27T02:12:31.490Z,11.20
2019-04-27T02:15:00.158Z,11.27
2019-04-27T02:17:28.905Z,10.37
2019-04-27T02:19:59.418Z,11.70
2019-04-27T02:22:29.694Z,11.27
2019-04-27T02:24:59.196Z,10.33
2019-04-27T02:27:29.533Z,11.17
2019-04-27T02:30:11.442Z,10.77
2019-04-27T02:32:40.316Z,12.57
2019-04-27T02:35:10.706Z,11.77
2019-04-27T02:37:40.308Z,12.60
2019-04-27T02:40:42.395Z,11.73
2019-04-27T02:43:10.307Z,13.37
2019-04-27T02:45:40.336Z,12.20
2019-04-27T02:48:09.928Z,11.57
2019-04-27T02:50:39.993Z,12.37
2019-04-27T02:53:11.051Z,12.80
2019-04-27T02:55:39.840Z,12.40
2019-04-27T02:58:09.965Z,12.43
2019-04-27T03:00:39.981Z,11.53
2019-04-27T03:03:10.561Z,13.20
2019-04-27T03:05:39.916Z,11.60
2019-04-27T03:08:10.150Z,11.70
2019-04-27T03:10:40.099Z,12.73
2019-04-27T03:13:14.330Z,11.80
2019-04-27T03:15:49.618Z,13.40
2019-04-27T03:18:32.743Z,12.50
2019-04-27T03:21:02.837Z,12.80
2019-04-27T03:23:31.335Z,12.13
2019-04-27T03:26:07.212Z,13.47
2019-04-27T03:28:35.795Z,12.80
2019-04-27T03:31:04.540Z,13.03
2019-04-27T03:33:33.254Z,11.40
2019-04-27T03:36:03.093Z,13.90
2019-04-27T03:38:31.687Z,14.33
2019-04-27T03:41:00.679Z,13.90
2019-04-27T03:43:30.276Z,14.30
2019-04-27T03:46:00.512Z,13.50
2019-04-27T03:48:29.625Z,14.90
2019-04-27T03:51:09.936Z,14.00
2019-04-27T03:53:43.313Z,13.70
2019-04-27T03:56:22.556Z,14.47
2019-04-27T03:58:55.629Z,14.47
2019-04-27T04:01:24.128Z,13.93
2019-04-27T04:03:52.592Z,14.73
2019-04-27T04:06:21.189Z,13.97
2019-04-27T04:08:52.943Z,14.70
2019-04-27T04:11:32.373Z,14.50
2019-04-27T04:14:02.526Z,16.33
2019-04-27T04:16:32.621Z,17.03
2019-04-27T04:21:46.451Z,15.87
2019-04-27T04:24:14.982Z,16.27
2019-04-27T04:26:43.428Z,17.70
2019-04-27T04:29:12.073Z,17.80
2019-04-27T04:31:40.815Z,17.60
2019-04-27T04:34:11.955Z,18.47
2019-04-27T04:36:42.406Z,17.60
2019-04-27T04:39:12.325Z,17.47
2019-04-27T04:41:43.679Z,18.80
2019-04-27T04:44:31.716Z,20.47
2019-04-27T04:47:10.176Z,20.20
2019-04-27T04:49:39.784Z,21.10
2019-04-27T04:52:09.652Z,20.67
2019-04-27T04:54:40.710Z,22.20
2019-04-27T04:57:09.302Z,21.60
2019-04-27T04:59:39.031Z,24.10
2019-04-27T05:02:10.345Z,22.37
2019-04-27T05:04:39.072Z,25.33
2019-04-27T05:07:09.036Z,25.37
2019-04-27T05:09:39.486Z,26.97
2019-04-27T05:12:08.885Z,23.63
2019-04-27T05:14:38.919Z,26.43
2019-04-27T05:17:09.333Z,23.93
2019-04-27T05:19:38.960Z,27.20
2019-04-27T05:22:09.223Z,29.30
2019-04-27T05:24:39.337Z,25.00
2019-04-27T05:27:09.233Z,23.57
2019-04-27T05:29:38.956Z,23.57
2019-04-27T05:32:09.098Z,25.00
2019-04-27T05:34:39.440Z,25.00
2019-04-27T05:37:08.957Z,24.17
2019-04-27T05:39:38.925Z,23.80
2019-04-27T05:42:12.538Z,24.80
2019-04-27T05:44:59.744Z,25.60
2019-04-27T05:47:48.457Z,25.80
2019-04-27T05:50:20.110Z,25.30
2019-04-27T05:52:45.434Z,25.73
2019-04-27T05:55:13.955Z,25.80
2019-04-27T05:57:42.399Z,25.23
2019-04-27T06:00:12.785Z,26.20
2019-04-27T06:02:41.231Z,25.87
2019-04-27T06:05:10.063Z,27.00
2019-04-27T06:07:39.598Z,26.50
2019-04-27T06:10:09.572Z,26.67
2019-04-27T06:12:39.602Z,27.03
2019-04-27T06:15:09.742Z,28.60
2019-04-27T06:17:38.798Z,29.07
2019-04-27T06:20:09.075Z,28.50
2019-04-27T06:22:39.011Z,28.07
2019-04-27T06:25:11.321Z,28.93
2019-04-27T06:27:39.676Z,28.07
2019-04-27T06:30:09.401Z,28.80
2019-04-27T06:32:39.530Z,27.47
2019-04-27T06:35:09.144Z,27.03
2019-04-27T06:37:38.995Z,28.70
2019-04-27T06:40:09.659Z,25.93
2019-04-27T06:42:39.588Z,27.90
2019-04-27T06:45:09.902Z,25.43
2019-04-27T06:47:39.640Z,25.77
2019-04-27T06:50:08.964Z,25.77
2019-04-27T06:52:39.033Z,25.57
2019-04-27T06:55:09.374Z,24.90
2019-04-27T06:57:39.100Z,25.47
2019-04-27T07:00:09.274Z,25.77
2019-04-27T07:02:39.229Z,26.10
2019-04-27T07:05:08.998Z,25.33
2019-04-27T07:07:39.530Z,25.87
2019-04-27T07:10:08.708Z,26.70
2019-04-27T07:12:40.706Z,26.10
2019-04-27T07:15:08.917Z,25.30
2019-04-27T07:17:38.887Z,24.50
2019-04-27T07:20:09.059Z,26.77
2019-04-27T07:22:39.558Z,26.60
2019-04-27T07:25:09.041Z,24.77
2019-04-27T07:27:39.542Z,25.30
2019-04-27T07:30:11.795Z,27.00
2019-04-27T07:32:39.082Z,25.90
2019-04-27T07:35:09.673Z,25.20
2019-04-27T07:37:39.325Z,24.53
2019-04-27T07:40:09.060Z,24.77
2019-04-27T07:42:41.396Z,26.13
2019-04-27T07:45:11.797Z,26.33
2019-04-27T07:47:41.905Z,27.47
2019-04-27T07:50:10.430Z,27.87
2019-04-27T07:52:40.516Z,26.80
2019-04-27T07:55:09.296Z,28.10
2019-04-27T07:57:37.790Z,26.20
2019-04-27T08:00:08.904Z,28.97
2019-04-27T08:02:38.996Z,30.57
2019-04-27T08:05:09.311Z,31.23
2019-04-27T08:07:42.085Z,30.93
2019-04-27T08:10:12.809Z,32.50
2019-04-27T08:12:41.323Z,34.03
2019-04-27T08:15:09.931Z,33.50
2019-04-27T08:17:42.499Z,33.97
2019-04-27T08:20:09.511Z,33.47
2019-04-27T08:22:38.887Z,34.83
2019-04-27T08:25:09.256Z,36.23
2019-04-27T08:27:42.105Z,34.30
2019-04-27T08:30:21.136Z,37.30
2019-04-27T08:32:53.630Z,35.53
2019-04-27T08:35:22.181Z,36.80
2019-04-27T08:37:50.674Z,36.57
2019-04-27T08:40:19.760Z,36.67
2019-04-27T08:42:51.323Z,37.17
2019-04-27T08:45:21.673Z,36.80
2019-04-27T08:47:50.156Z,37.30
2019-04-27T08:50:19.173Z,37.20
2019-04-27T08:52:49.897Z,35.90
2019-04-27T08:55:19.571Z,35.10
2019-04-27T08:57:48.942Z,34.67
2019-04-27T09:00:19.500Z,33.97
2019-04-27T09:02:50.026Z,33.70
2019-04-27T09:05:21.224Z,32.70
2019-04-27T09:08:00.373Z,33.60
2019-04-27T09:10:39.363Z,34.60
2019-04-27T09:13:19.472Z,33.80
2019-04-27T09:15:53.347Z,32.00
2019-04-27T09:18:23.813Z,33.13
2019-04-27T09:20:53.918Z,31.80
2019-04-27T09:23:22.468Z,30.50
2019-04-27T09:25:50.909Z,30.97
2019-04-27T09:28:21.708Z,31.37
2019-04-27T09:30:49.962Z,29.67
2019-04-27T09:33:18.611Z,30.60
2019-04-27T09:35:47.090Z,29.20
2019-04-27T09:38:16.737Z,29.00
2019-04-27T09:40:46.607Z,30.27
2019-04-27T09:43:15.780Z,29.40
2019-04-27T09:45:44.977Z,29.30
2019-04-27T09:48:13.586Z,31.10
2019-04-27T09:50:42.104Z,28.20
2019-04-27T09:53:10.644Z,29.90
2019-04-27T09:55:39.203Z,27.17
2019-04-27T09:58:08.012Z,26.63
2019-04-27T10:00:36.884Z,28.07
2019-04-27T10:03:06.572Z,26.93
2019-04-27T10:05:36.688Z,26.53
2019-04-27T10:08:06.311Z,25.17
2019-04-27T10:10:36.965Z,25.83
2019-04-27T10:13:06.971Z,22.17
2019-04-27T10:15:35.725Z,23.40
2019-04-27T10:18:06.061Z,23.10
2019-04-27T10:20:38.720Z,22.67
2019-04-27T10:23:06.218Z,22.40
2019-04-27T10:25:35.494Z,22.33
2019-04-27T10:28:06.743Z,18.73
2019-04-27T10:30:35.912Z,23.30
2019-04-27T10:33:05.975Z,22.93
2019-04-27T10:35:36.298Z,20.20
2019-04-27T10:38:10.760Z,20.97
2019-04-27T10:40:46.091Z,23.73
2019-04-27T10:43:16.565Z,20.77
2019-04-27T10:45:46.412Z,20.83
2019-04-27T10:48:16.327Z,21.50
2019-04-27T10:50:46.694Z,20.00
2019-04-27T10:53:16.904Z,17.93
2019-04-27T10:55:46.424Z,20.20
2019-04-27T10:58:15.806Z,18.93
2019-04-27T11:00:45.989Z,19.30
2019-04-27T11:03:16.688Z,20.33
2019-04-27T11:05:47.015Z,18.60
2019-04-27T11:08:16.692Z,19.30
2019-04-27T11:10:46.172Z,18.30
2019-04-27T11:13:16.486Z,19.17
2019-04-27T11:15:46.097Z,17.13
2019-04-27T11:18:16.700Z,18.07
2019-04-27T11:20:46.832Z,14.40
2019-04-27T11:23:16.402Z,11.40
2019-04-27T11:25:46.825Z,13.40
2019-04-27T11:28:15.775Z,12.80
2019-04-27T11:30:44.459Z,12.63
2019-04-27T11:33:12.972Z,12.43
2019-04-27T11:35:43.642Z,13.10
2019-04-27T11:38:12.264Z,13.07
2019-04-27T11:40:40.775Z,13.47
2019-04-27T11:43:09.340Z,11.80
2019-04-27T11:45:37.939Z,10.37
2019-04-27T11:48:06.448Z,12.00
2019-04-27T11:50:35.933Z,10.80
2019-04-27T11:53:06.047Z,9.30
2019-04-27T11:55:34.775Z,9.47
2019-04-27T11:58:03.345Z,8.83
2019-04-27T12:00:32.292Z,7.83
2019-04-27T12:03:00.850Z,7.40
2019-04-27T12:05:29.661Z,7.50
2019-04-27T12:07:58.241Z,7.73
2019-04-27T12:10:26.864Z,8.00
2019-04-27T12:12:56.313Z,8.40
2019-04-27T12:15:26.281Z,9.07
2019-04-27T12:17:56.158Z,10.00
2019-04-27T12:20:25.794Z,8.70
2019-04-27T12:22:54.998Z,9.23
2019-04-27T12:25:23.616Z,10.00
2019-04-27T12:27:56.950Z,9.40
2019-04-27T12:30:29.678Z,9.17
2019-04-27T12:32:58.280Z,6.90
2019-04-27T12:35:26.824Z,7.83
2019-04-27T12:37:56.039Z,7.40
2019-04-27T12:40:26.696Z,8.43
2019-04-27T12:42:55.121Z,8.13
2019-04-27T12:45:23.652Z,7.70
2019-04-27T12:47:52.117Z,7.43
2019-04-27T12:50:21.098Z,8.10
2019-04-27T12:53:00.188Z,8.80
2019-04-27T12:55:39.211Z,7.00
2019-04-27T12:58:18.509Z,7.70
2019-04-27T13:00:51.397Z,7.60
2019-04-27T13:03:19.885Z,8.20
2019-04-27T13:05:48.809Z,7.57
2019-04-27T13:08:17.487Z,8.40
2019-04-27T13:10:45.996Z,8.43
2019-04-27T13:13:16.302Z,6.90
2019-04-27T13:15:46.107Z,6.23
2019-04-27T13:18:16.707Z,6.07
2019-04-27T13:20:45.386Z,5.47
2019-04-27T13:23:13.879Z,5.00
2019-04-27T13:25:43.099Z,5.00
2019-04-27T13:28:12.370Z,4.60
2019-04-27T13:30:40.834Z,4.17
2019-04-27T13:33:09.389Z,4.27
2019-04-27T13:35:37.958Z,4.73
2019-04-27T13:38:06.430Z,5.47
2019-04-27T13:40:37.340Z,6.37
2019-04-27T13:43:08.272Z,5.67
2019-04-27T13:45:38.419Z,4.33
2019-04-27T13:48:11.275Z,5.50
2019-04-27T13:50:47.184Z,5.03
2019-04-27T13:53:16.759Z,8.00
2019-04-27T13:55:46.719Z,3.70
2019-04-27T13:58:15.927Z,4.20
2019-04-27T14:00:44.434Z,4.43
2019-04-27T14:03:14.653Z,5.00
2019-04-27T14:05:43.204Z,4.50
2019-04-27T14:08:11.703Z,6.07
2019-04-27T14:10:40.158Z,5.57
2019-04-27T14:13:11.007Z,6.03
2019-04-27T14:15:39.073Z,5.43
2019-04-27T14:18:08.411Z,5.43
2019-04-27T14:20:38.975Z,4.90
2019-04-27T14:23:15.557Z,5.77
2019-04-27T14:25:44.039Z,5.10
2019-04-27T14:28:12.472Z,5.57
2019-04-27T14:30:41.027Z,5.23
2019-04-27T14:33:09.476Z,4.70
2019-04-27T14:35:38.023Z,4.87
2019-04-27T14:38:06.460Z,4.50
2019-04-27T14:40:34.979Z,4.43
2019-04-27T14:43:03.420Z,4.07
2019-04-27T14:45:31.948Z,4.47
2019-04-27T14:48:00.415Z,4.57
2019-04-27T14:50:28.948Z,4.37
2019-04-27T14:52:59.060Z,3.77
2019-04-27T14:55:28.253Z,4.17
2019-04-27T14:57:58.672Z,4.10
2019-04-27T15:00:28.778Z,3.30
2019-04-27T15:02:59.154Z,3.47
2019-04-27T15:05:27.957Z,3.93
2019-04-27T15:07:56.483Z,4.13
2019-04-27T15:10:27.115Z,4.20
2019-04-27T15:12:55.534Z,3.80
2019-04-27T15:15:24.475Z,3.67
2019-04-27T15:17:52.923Z,4.30
2019-04-27T15:20:36.062Z,3.93
2019-04-27T15:23:05.612Z,4.40
2019-04-27T15:25:42.346Z,4.23
2019-04-27T15:28:07.464Z,4.37
2019-04-27T15:30:42.592Z,4.63
2019-04-27T15:33:29.181Z,3.70
2019-04-27T15:36:10.272Z,4.13
2019-04-27T15:38:50.147Z,3.90
2019-04-27T15:41:33.790Z,3.90
2019-04-27T15:44:05.936Z,3.83
2019-04-27T15:46:33.807Z,3.90
2019-04-27T15:49:09.759Z,4.33
2019-04-27T15:51:33.825Z,4.40
2019-04-27T15:54:02.397Z,4.63
2019-04-27T15:56:35.336Z,4.47
2019-04-27T15:59:01.307Z,5.77
2019-04-27T16:01:35.836Z,5.67
2019-04-27T16:04:02.497Z,6.17
2019-04-27T16:06:30.625Z,5.87
2019-04-27T16:08:59.174Z,5.60
2019-04-27T16:11:27.613Z,5.63
2019-04-27T16:13:56.347Z,6.10
2019-04-27T16:16:29.222Z,5.57
2019-04-27T16:18:55.172Z,6.50
2019-04-27T16:21:23.689Z,6.40
2019-04-27T16:23:52.278Z,5.27
2019-04-27T16:26:20.810Z,5.17
2019-04-27T16:28:53.019Z,5.70
2019-04-27T16:31:20.458Z,4.33
2019-04-27T16:33:49.686Z,4.90
2019-04-27T16:36:19.766Z,4.23
2019-04-27T16:38:50.177Z,4.90
2019-04-27T16:41:18.808Z,4.73
2019-04-27T16:43:48.990Z,5.37
2019-04-27T16:46:19.059Z,5.37
2019-04-27T16:48:48.034Z,4.93
2019-04-27T16:51:18.191Z,5.50
2019-04-27T16:53:46.920Z,5.73
2019-04-27T16:56:18.124Z,5.87
2019-04-27T16:58:51.111Z,6.10
2019-04-27T17:01:20.280Z,5.97
2019-04-27T17:03:48.914Z,6.00
2019-04-27T17:06:19.099Z,6.57
2019-04-27T17:08:49.574Z,7.07
2019-04-27T17:11:19.651Z,6.40
2019-04-27T17:13:55.948Z,7.17
2019-04-27T17:16:31.240Z,6.23
2019-04-27T17:19:04.727Z,7.00
2019-04-27T17:21:28.801Z,6.93
2019-04-27T17:24:02.853Z,7.60
2019-04-27T17:26:29.230Z,7.40
2019-04-27T17:29:11.005Z,6.67
2019-04-27T17:31:38.169Z,6.80
2019-04-27T17:34:08.159Z,7.63
2019-04-27T17:36:38.514Z,6.80
2019-04-27T17:39:09.190Z,6.60
2019-04-27T17:41:42.169Z,6.63
2019-04-27T17:44:08.662Z,6.77
2019-04-27T17:46:38.538Z,6.93
2019-04-27T17:49:08.462Z,6.60
2019-04-27T17:51:42.961Z,6.30
2019-04-27T17:54:11.131Z,6.40
2019-04-27T17:56:48.455Z,7.33
2019-04-27T17:59:10.374Z,5.40
2019-04-27T18:01:38.891Z,6.50
2019-04-27T18:04:10.369Z,7.20
2019-04-27T18:06:39.077Z,6.80
2019-04-27T18:09:09.971Z,6.30
2019-04-27T18:11:38.594Z,6.30
2019-04-27T18:14:11.149Z,5.60
2019-04-27T18:16:38.088Z,5.70
2019-04-27T18:19:25.808Z,6.40
2019-04-27T18:22:01.001Z,6.23
2019-04-27T18:24:33.729Z,6.30
2019-04-27T18:27:09.851Z,6.53
2019-04-27T18:29:38.769Z,7.17
2019-04-27T18:32:08.878Z,7.30
2019-04-27T18:34:38.918Z,6.77
2019-04-27T18:37:07.530Z,6.47
2019-04-27T18:39:36.020Z,5.10
2019-04-27T18:42:04.744Z,6.07
2019-04-27T18:44:33.319Z,4.00
2019-04-27T18:47:02.485Z,4.23
2019-04-27T18:49:32.899Z,3.93
2019-04-27T18:52:06.531Z,3.20
2019-04-27T18:54:38.222Z,3.20
2019-04-27T18:57:06.160Z,2.77
2019-04-27T18:59:34.681Z,2.17
2019-04-27T19:02:03.186Z,2.10
2019-04-27T19:04:31.810Z,2.10
2019-04-27T19:07:00.694Z,2.30
2019-04-27T19:09:33.522Z,2.10
2019-04-27T19:12:04.334Z,1.87
2019-04-27T19:14:32.902Z,1.80
2019-04-27T19:17:02.390Z,2.13
2019-04-27T19:19:30.856Z,2.00
2019-04-27T19:21:59.846Z,2.13
2019-04-27T19:24:29.113Z,2.00
2019-04-27T19:27:15.413Z,2.17
2019-04-27T19:29:38.176Z,2.23
2019-04-27T19:32:08.141Z,1.93
2019-04-27T19:34:38.787Z,2.13
2019-04-27T19:37:08.191Z,2.10
2019-04-27T19:39:39.302Z,2.37
2019-04-27T19:42:07.636Z,2.20
2019-04-27T19:44:36.199Z,2.50
2019-04-27T19:47:05.897Z,1.90
2019-04-27T19:49:35.049Z,2.40
2019-04-27T19:52:03.556Z,2.03
2019-04-27T19:54:32.104Z,2.17
2019-04-27T19:57:00.580Z,2.00
2019-04-27T19:59:30.720Z,2.30
2019-04-27T20:02:00.817Z,1.83
2019-04-27T20:04:31.415Z,1.80
2019-04-27T20:06:59.948Z,2.10
2019-04-27T20:09:32.099Z,2.00
2019-04-27T20:12:00.862Z,2.30
2019-04-27T20:14:33.233Z,2.20
2019-04-27T20:17:01.713Z,2.73
2019-04-27T20:19:31.483Z,1.97
2019-04-27T20:22:00.847Z,2.60
2019-04-27T20:24:31.402Z,2.40
2019-04-27T20:27:00.673Z,2.27
2019-04-27T20:29:31.714Z,2.00
2019-04-27T20:32:01.189Z,2.50
2019-04-27T20:34:31.077Z,2.97
2019-04-27T20:37:01.290Z,3.53
2019-04-27T20:39:30.153Z,2.20
2019-04-27T20:41:58.576Z,2.53
2019-04-27T20:44:27.092Z,3.27
2019-04-27T20:46:55.610Z,2.83
2019-04-27T20:49:24.131Z,3.70
2019-04-27T20:52:10.984Z,3.83
2019-04-27T20:54:41.379Z,3.83
2019-04-27T20:57:11.497Z,4.30
2019-04-27T20:59:40.207Z,4.00
2019-04-27T21:02:27.220Z,4.30
2019-04-27T21:04:57.411Z,4.80
2019-04-27T21:07:42.305Z,4.50
2019-04-27T21:10:11.070Z,3.80
2019-04-27T21:12:41.186Z,4.50
2019-04-27T21:15:12.735Z,4.50
2019-04-27T21:17:40.698Z,4.63
2019-04-27T21:20:11.805Z,4.43
2019-04-27T21:22:41.755Z,4.57
2019-04-27T21:25:11.860Z,4.93
2019-04-27T21:27:41.050Z,4.90
2019-04-27T21:30:11.393Z,5.10
2019-04-27T21:32:40.090Z,5.77
2019-04-27T21:35:10.846Z,5.03
2019-04-27T21:37:40.915Z,5.93
2019-04-27T21:40:18.135Z,5.43
2019-04-27T21:42:47.168Z,5.67
2019-04-27T21:45:16.648Z,6.07
2019-04-27T21:47:45.552Z,5.47
2019-04-27T21:50:14.533Z,5.40
2019-04-27T21:52:53.643Z,5.23
2019-04-27T21:55:23.969Z,5.63
2019-04-27T21:57:52.434Z,6.10
2019-04-27T22:00:28.673Z,5.83
2019-04-27T22:02:57.521Z,6.00
2019-04-27T22:05:25.968Z,5.50
2019-04-27T22:07:54.656Z,5.30
2019-04-27T22:10:23.199Z,5.50
2019-04-27T22:12:51.874Z,5.80
2019-04-27T22:15:21.219Z,5.20
2019-04-27T22:17:49.838Z,4.93
2019-04-27T22:20:18.425Z,4.43
2019-04-27T22:23:01.727Z,4.90
2019-04-27T22:25:35.833Z,4.80
2019-04-27T22:28:04.600Z,5.20
2019-04-27T22:30:33.059Z,4.83
2019-04-27T22:33:01.772Z,5.27
2019-04-27T22:35:31.248Z,5.30
2019-04-27T22:38:01.847Z,4.70
2019-04-27T22:40:48.054Z,5.23
2019-04-27T22:43:26.815Z,4.80
2019-04-27T22:45:55.947Z,4.57
2019-04-27T22:48:24.434Z,5.10
2019-04-27T22:50:52.900Z,4.60
2019-04-27T22:53:21.427Z,4.43
2019-04-27T22:56:07.696Z,5.37
2019-04-27T22:58:37.834Z,5.10
2019-04-27T23:01:16.995Z,4.93
2019-04-27T23:03:51.574Z,4.80
2019-04-27T23:06:21.627Z,5.30
2019-04-27T23:08:51.567Z,5.33
2019-04-27T23:11:21.088Z,4.30
2019-04-27T23:13:50.595Z,4.67
2019-04-27T23:16:21.930Z,4.90
2019-04-27T23:18:51.548Z,4.50
2019-04-27T23:21:20.930Z,4.57
2019-04-27T23:23:51.598Z,4.30
2019-04-27T23:26:21.150Z,4.70
2019-04-27T23:28:51.420Z,4.70
2019-04-27T23:31:31.902Z,4.57
2019-04-27T23:34:01.872Z,4.10
2019-04-27T23:36:31.676Z,4.20
2019-04-27T23:39:00.882Z,4.00
2019-04-27T23:41:29.662Z,3.97
2019-04-27T23:43:58.168Z,4.13
2019-04-27T23:46:26.634Z,4.30
2019-04-27T23:48:55.203Z,4.30
2019-04-27T23:51:34.268Z,5.40
2019-04-27T23:54:02.796Z,4.43
2019-04-27T23:56:31.821Z,4.93
2019-04-27T23:59:00.544Z,4.50
